Overall — Blue Ridge - Mini

Sunday 15 May 2022 · 37 finishers across every class · 2 laps for the winner

Complete overall finishing order for Blue Ridge - Mini.
Pos No. Rider Class Laps Time Behind Int Pace
1 #92A LAMBERT, ASHTON SM 14-15 2 50:35 0:00 25:17
2 #47A Roach, Anthony SM 14-15 2 51:44 +1:09 1:09 25:52
3 #18A Davis, Chase SM 14-15 2 54:03 +3:28 2:19 27:01
4 #22A COBBS, MALCOLM SM 14-15 2 55:24 +4:49 1:21 27:42
5 #42A Winnell, Evan SM 14-15 2 56:42 +6:07 1:18 28:21
6 #51A SMITH, JAYLIN SM 14-15 2 56:50 +6:15 0:08 28:25
7 #5C Weston, Bodie MINI 12-13 2 58:02 +7:27 1:12 29:01
8 #14A CRISLIP,PARKER SM 14-15 2 58:59 +8:24 0:57 29:29
9 #36C FULCHER, THOMAS MINI 12-13 2 59:43 +9:08 0:44 29:51
10 #18C EDMONDSON, TUCKER MINI 12-13 2 59:53 +9:18 0:10 29:56
11 #13A Awam, Torren SM 14-15 2 1:00:59 +10:24 1:06 30:29
12 #94B McCullough, Ryland SM 12-13 2 1:01:29 +10:54 0:30 30:44
13 #42K LACY, JACK MINI 9-11K 2 1:02:35 +12:00 1:06 31:17
14 #66A Lowe, Albert SM 14-15 2 1:03:37 +13:02 1:02 31:48
15 #44D Gearhart, Cadence MINI 9-11 2 1:04:40 +14:05 1:03 32:20
16 #31B Finch, Sarah SM 12-13 2 1:05:50 +15:15 1:10 32:55
17 #25D HERTZLER, NOAH MINI 9-11 2 1:05:54 +15:19 0:04 32:57
18 #17A POWERS, KARSON SM 14-15 2 1:07:10 +16:35 1:16 33:35
19 #3K Bakken, Dash MINI 9-11K 2 1:07:42 +17:07 0:32 33:51
20 #24A CHRIMES, CHASE SM 14-15 2 1:10:50 +20:15 3:08 35:25
21 #14K Collins, Jaxon MINI 9-11K 2 1:12:04 +21:29 1:14 36:02
22 #87D KERN, QUENTIN MINI 9-11 2 1:15:52 +25:17 3:48 37:56
23 #36D Walters, Dalton MINI 9-11 2 1:16:55 +26:20 1:03 38:27
24 #47B HARRISON, EVAN SM 12-13 2 1:17:51 +27:16 0:56 38:55
25 #30C OLEARY, ASHTON MINI 12-13 2 1:20:19 +29:44 2:28 40:09
26 #77E ADAMSON, ELLA SM WOMEN 2 1:21:00 +30:25 0:41 40:30
27 #55C AUSTIN, BRAYDEN MINI 12-13 2 1:21:38 +31:03 0:38 40:49
28 #21K Wiggins, Maddix MINI 9-11K 2 1:21:58 +31:23 0:20 40:59
29 #85D BUCHANAN, TUCKER MINI 9-11 2 1:22:21 +31:46 0:23 41:10
30 #52D FOUTZ, KELLEN MINI 9-11 2 1:24:27 +33:52 2:06 42:13
31 #99A JONES, TATE SM 14-15 2 1:28:45 +38:10 4:18 44:22
32 #20K Nalls, Colton MINI 9-11K 1 42:04 1 lap 0:00 42:04
33 #1A Bryan, Lathan SM 14-15 1 48:22 1 lap 6:18 48:22
34 #24K OLEARY, NOLAN MINI 9-11K 1 49:25 1 lap 1:03 49:25
35 #22D Baker, Cohen MINI 9-11 1 51:09 1 lap 1:44 51:09
36 #16A WEST, ALAN SM 14-15 1 52:30 1 lap 1:21 52:30
37 #50C Chin, Brycen MINI 12-13 1 1:06:18 1 lap 13:48 1:06:18

Ranked the way the series ranks: most laps first, then least time. Behind is the deficit to the winner and is only shown where the lap count matches, because elapsed time says nothing across different lap counts — a rider a lap down shows the laps instead. Int is the gap to the rider immediately ahead.